Time;durP1;ratioP1;P1;durP2;ratioP2;P2;SDS_P1;SDS_P2;PMS_P1;PMS_P2;Temp;Humidity;BMP_temperature;BMP_pressure;BME280_temperature;BME280_humidity;BME280_pressure;Samples;Min_cycle;Max_cycle;Signal;HPM_P1;HPM_P2
2021/08/16 00:02:05;;;;;;;;;;;;;;;24.48;53.51;100808.50;5032674;28;1536;-88
2021/08/16 00:04:32;;;;;;;;;;;;;;;24.48;53.66;100800.38;5039243;28;1578;-90
2021/08/16 00:06:59;;;;;;;;;;;;;;;24.47;53.34;100803.25;5032459;28;1613;-90
2021/08/16 00:09:28;;;;;;;;;;;;;;;24.42;53.64;100806.47;5039772;28;1695;-90
2021/08/16 00:12:10;;;;;;;;;;;;;;;24.40;52.76;100790.44;5042198;28;1508;-92
2021/08/16 00:14:41;;;;;;;;;;;;;;;24.43;53.73;100791.94;5047053;28;1602;-90
2021/08/16 00:17:08;;;;;;;;;;;;;;;24.53;53.28;100787.25;5046798;28;1977;-91
2021/08/16 00:19:35;;;;;;;;;;;;;;;24.51;53.43;100783.88;5020296;28;957;-92
2021/08/16 00:22:04;;;;;;;;;;;;;;;24.46;52.92;100778.09;5031567;28;1746;-87
2021/08/16 00:24:32;;;;;;;;;;;;;;;24.46;53.34;100785.38;5039854;28;1770;-87
2021/08/16 00:26:59;;;;;;;;;;;;;;;24.42;52.67;100787.56;5049084;28;1754;-90
2021/08/16 00:29:26;;;;;;;;;;;;;;;24.40;53.32;100789.59;5057435;28;1610;-87
2021/08/16 00:31:54;;;;;;;;;;;;;;;24.38;53.24;100794.31;5048874;28;1657;-91
2021/08/16 00:34:21;;;;;;;;;;;;;;;24.29;53.37;100789.94;5040854;28;1663;-88
2021/08/16 00:36:48;;;;;;;;;;;;;;;24.32;53.82;100795.00;5040382;28;1906;-90
2021/08/16 00:39:25;;;;;;;;;;;;;;;24.34;53.73;100787.56;5038107;28;1566;-86
2021/08/16 00:41:54;;;;;;;;;;;;;;;24.40;53.51;100789.59;5030575;28;1669;-91
2021/08/16 00:44:22;;;;;;;;;;;;;;;24.47;53.31;100804.13;5038942;28;991;-90
2021/08/16 00:46:53;;;;;;;;;;;;;;;24.51;53.22;100772.19;5039539;28;1491;-88
2021/08/16 00:49:27;;;;;;;;;;;;;;;24.43;52.66;100808.16;5047837;28;1797;-90
2021/08/16 00:51:53;;;;;;;;;;;;;;;24.45;53.55;100803.41;5051345;28;1011;-92
2021/08/16 00:54:22;;;;;;;;;;;;;;;24.47;53.06;100814.94;5052182;28;1246;-88
2021/08/16 00:56:48;;;;;;;;;;;;;;;24.40;53.39;100786.88;5047862;28;1991;-91
2021/08/16 00:59:17;;;;;;;;;;;;;;;24.39;53.41;100791.47;5038061;28;1590;-88
2021/08/16 01:01:44;;;;;;;;;;;;;;;24.18;53.89;100807.34;5037754;28;1606;-89
2021/08/16 01:04:10;;;;;;;;;;;;;;;24.15;53.49;100805.81;5038675;28;1027;-92
2021/08/16 01:06:38;;;;;;;;;;;;;;;24.25;53.72;100789.41;5022833;28;1637;-89
2021/08/16 01:09:06;;;;;;;;;;;;;;;24.25;53.62;100793.97;5011549;28;1099;-90
2021/08/16 01:11:33;;;;;;;;;;;;;;;24.32;52.98;100795.00;5015716;28;1263;-87
2021/08/16 01:13:59;;;;;;;;;;;;;;;24.29;53.16;100798.91;5036685;28;1622;-90
2021/08/16 01:16:26;;;;;;;;;;;;;;;24.30;53.31;100787.06;5019850;28;1910;-91
2021/08/16 01:18:52;;;;;;;;;;;;;;;24.16;53.97;100794.00;5005729;28;1507;-87
2021/08/16 01:21:20;;;;;;;;;;;;;;;24.11;53.89;100788.22;5026042;28;1867;-90
2021/08/16 01:23:49;;;;;;;;;;;;;;;24.20;53.38;100781.81;5019124;28;1384;-90
2021/08/16 01:26:18;;;;;;;;;;;;;;;24.16;53.51;100793.16;5020778;28;1445;-90
2021/08/16 01:28:46;;;;;;;;;;;;;;;24.16;53.99;100780.47;5020694;28;1591;-87
2021/08/16 01:31:13;;;;;;;;;;;;;;;24.26;52.89;100784.88;5015017;28;1475;-91
2021/08/16 01:33:41;;;;;;;;;;;;;;;24.20;53.16;100776.44;5022142;28;1340;-92
2021/08/16 01:36:08;;;;;;;;;;;;;;;24.28;53.56;100796.38;5032173;28;1537;-87
2021/08/16 01:38:37;;;;;;;;;;;;;;;24.27;52.97;100791.97;5029400;28;1903;-87
2021/08/16 01:41:05;;;;;;;;;;;;;;;24.07;53.39;100784.19;5013458;28;1602;-87
2021/08/16 01:43:31;;;;;;;;;;;;;;;24.04;53.49;100784.53;5013790;28;1498;-87
2021/08/16 01:46:00;;;;;;;;;;;;;;;24.10;53.57;100781.16;5021039;28;973;-87
2021/08/16 01:48:28;;;;;;;;;;;;;;;24.03;53.57;100785.53;5019703;28;1826;-90
2021/08/16 01:50:56;;;;;;;;;;;;;;;23.97;53.61;100780.81;5033639;28;1554;-87
2021/08/16 01:53:23;;;;;;;;;;;;;;;23.99;53.85;100792.28;5024641;28;1608;-87
2021/08/16 01:55:50;;;;;;;;;;;;;;;24.10;53.61;100783.03;5023160;28;1548;-87
2021/08/16 01:58:29;;;;;;;;;;;;;;;23.95;53.81;100775.56;5022282;28;1981;-90
2021/08/16 02:00:55;;;;;;;;;;;;;;;24.11;53.93;100782.84;5148769;22;3648;-49
2021/08/16 02:03:23;;;;;;;;;;;;;;;24.04;53.45;100787.25;5046458;28;1678;-49
2021/08/16 02:05:49;;;;;;;;;;;;;;;24.00;53.50;100785.88;5044561;28;1693;-49
2021/08/16 02:08:16;;;;;;;;;;;;;;;24.08;53.47;100772.38;5043855;28;1169;-49
2021/08/16 02:10:42;;;;;;;;;;;;;;;23.98;53.53;100777.94;5043367;28;1624;-49
2021/08/16 02:13:10;;;;;;;;;;;;;;;24.03;53.23;100777.44;5042137;28;1750;-49
2021/08/16 02:15:37;;;;;;;;;;;;;;;24.02;53.34;100789.25;5056791;28;1629;-48
2021/08/16 02:18:04;;;;;;;;;;;;;;;24.01;53.37;100772.22;5043319;28;1910;-49
2021/08/16 02:20:32;;;;;;;;;;;;;;;24.15;53.19;100784.22;5050128;28;1421;-49
2021/08/16 02:22:58;;;;;;;;;;;;;;;24.11;53.03;100765.78;5043560;28;1058;-48
2021/08/16 02:25:25;;;;;;;;;;;;;;;24.07;53.12;100784.19;5043330;28;1807;-49
2021/08/16 02:27:54;;;;;;;;;;;;;;;23.91;53.64;100797.69;5043290;28;1345;-49
2021/08/16 02:30:21;;;;;;;;;;;;;;;23.82;53.75;100777.94;5056206;28;1847;-49
2021/08/16 02:32:48;;;;;;;;;;;;;;;23.96;53.52;100779.13;5042391;28;1557;-49
2021/08/16 02:35:14;;;;;;;;;;;;;;;23.95;53.34;100782.84;5052229;28;1085;-49
2021/08/16 02:37:42;;;;;;;;;;;;;;;23.94;53.09;100789.25;5043113;28;2245;-48
2021/08/16 02:40:09;;;;;;;;;;;;;;;24.05;52.86;100793.47;5043786;28;1473;-48
2021/08/16 02:42:36;;;;;;;;;;;;;;;23.98;52.92;100790.63;5045492;28;1712;-48
2021/08/16 02:45:02;;;;;;;;;;;;;;;23.82;53.25;100794.97;5048818;28;1668;-48
2021/08/16 02:47:29;;;;;;;;;;;;;;;23.76;53.71;100797.47;5044150;28;1569;-49
2021/08/16 02:49:55;;;;;;;;;;;;;;;23.72;53.34;100783.47;5049011;28;1943;-49
2021/08/16 02:52:22;;;;;;;;;;;;;;;23.89;53.18;100788.91;5044292;28;1677;-49
2021/08/16 02:54:50;;;;;;;;;;;;;;;23.95;53.15;100793.63;5044476;28;1745;-48
2021/08/16 02:57:19;;;;;;;;;;;;;;;23.91;53.17;100789.59;5044721;28;1980;-49
2021/08/16 02:59:46;;;;;;;;;;;;;;;23.96;52.91;100779.97;5043054;28;1542;-48
2021/08/16 03:02:12;;;;;;;;;;;;;;;23.98;53.11;100787.91;5045671;28;1755;-49
2021/08/16 03:04:39;;;;;;;;;;;;;;;23.90;52.93;100796.00;5045137;28;1175;-49
2021/08/16 03:07:05;;;;;;;;;;;;;;;23.87;53.20;100793.63;5043744;28;1713;-49
2021/08/16 03:09:32;;;;;;;;;;;;;;;23.92;53.18;100796.69;5044796;28;2017;-49
2021/08/16 03:12:00;;;;;;;;;;;;;;;23.88;53.20;100787.25;5044331;28;1465;-48
2021/08/16 03:14:26;;;;;;;;;;;;;;;23.75;53.29;100793.91;5043302;28;1597;-49
2021/08/16 03:16:53;;;;;;;;;;;;;;;23.65;53.92;100790.53;5042629;28;1937;-49
2021/08/16 03:19:19;;;;;;;;;;;;;;;23.76;53.99;100803.72;5044945;28;1080;-48
2021/08/16 03:21:46;;;;;;;;;;;;;;;23.86;53.67;100794.66;5044044;28;1836;-48
2021/08/16 03:24:12;;;;;;;;;;;;;;;23.88;53.26;100809.69;5044383;28;1477;-48
2021/08/16 03:26:39;;;;;;;;;;;;;;;23.84;53.92;100788.59;5043422;28;1513;-48
2021/08/16 03:29:07;;;;;;;;;;;;;;;23.68;53.86;100801.00;5052311;28;1533;-48
2021/08/16 03:31:33;;;;;;;;;;;;;;;23.66;53.68;100802.19;5042115;28;1855;-49
2021/08/16 03:34:00;;;;;;;;;;;;;;;23.70;54.13;100792.75;5042503;28;1063;-50
2021/08/16 03:36:26;;;;;;;;;;;;;;;23.79;53.84;100800.69;5034957;28;2104;-49
2021/08/16 03:38:53;;;;;;;;;;;;;;;23.82;53.40;100796.84;5052384;28;1902;-48
2021/08/16 03:41:19;;;;;;;;;;;;;;;23.80;53.86;100791.59;5044580;28;1089;-48
2021/08/16 03:43:46;;;;;;;;;;;;;;;23.95;53.34;100805.28;5048090;28;2742;-49
2021/08/16 03:46:13;;;;;;;;;;;;;;;24.00;53.30;100802.09;5044494;28;1613;-48
2021/08/16 03:48:40;;;;;;;;;;;;;;;23.98;53.17;100804.97;5042680;28;1764;-49
2021/08/16 03:51:07;;;;;;;;;;;;;;;23.88;53.50;100803.44;5042992;28;1530;-49
2021/08/16 03:53:33;;;;;;;;;;;;;;;23.75;53.85;100799.31;5044156;28;1653;-49
2021/08/16 03:56:00;;;;;;;;;;;;;;;23.80;54.18;100807.81;5047963;28;1655;-49
2021/08/16 03:58:26;;;;;;;;;;;;;;;23.88;54.09;100801.56;5042082;28;1926;-49
2021/08/16 04:00:53;;;;;;;;;;;;;;;23.90;53.82;100793.31;5043670;28;1243;-49
2021/08/16 04:03:21;;;;;;;;;;;;;;;23.92;53.82;100796.69;5040738;28;1726;-48
2021/08/16 04:05:47;;;;;;;;;;;;;;;23.87;54.05;100790.94;5054846;28;1734;-51
2021/08/16 04:08:14;;;;;;;;;;;;;;;23.97;53.74;100802.41;5050374;28;1429;-50
2021/08/16 04:10:40;;;;;;;;;;;;;;;24.07;53.79;100794.16;5041739;28;1883;-49
2021/08/16 04:13:07;;;;;;;;;;;;;;;23.87;53.77;100785.53;5046282;28;1456;-48
2021/08/16 04:15:33;;;;;;;;;;;;;;;24.00;53.65;100796.69;5042957;28;1920;-48
2021/08/16 04:18:00;;;;;;;;;;;;;;;24.02;54.10;100795.50;5041929;28;1910;-49
2021/08/16 04:20:27;;;;;;;;;;;;;;;24.08;53.37;100799.41;5058598;28;1757;-49
2021/08/16 04:22:54;;;;;;;;;;;;;;;24.17;53.69;100814.59;5043698;28;1316;-50
2021/08/16 04:25:20;;;;;;;;;;;;;;;24.29;52.83;100816.94;5054328;28;1816;-48
2021/08/16 04:27:49;;;;;;;;;;;;;;;24.29;53.34;100806.13;5056863;28;1532;-49
2021/08/16 04:30:16;;;;;;;;;;;;;;;24.55;52.24;100804.13;5057373;28;1714;-48
2021/08/16 04:32:54;;;;;;;;;;;;;;;24.65;52.87;100800.38;5052771;28;1383;-48
2021/08/16 04:35:29;;;;;;;;;;;;;;;24.81;52.16;100805.78;5059502;28;1789;-49
2021/08/16 04:37:57;;;;;;;;;;;;;;;24.88;51.08;100812.16;5058440;28;1984;-48
2021/08/16 04:40:24;;;;;;;;;;;;;;;25.17;51.05;100816.16;5048553;28;1761;-49
2021/08/16 04:42:50;;;;;;;;;;;;;;;25.24;50.90;100806.31;5055308;28;1584;-49
2021/08/16 04:45:17;;;;;;;;;;;;;;;25.29;50.94;100813.94;5051739;28;1595;-48
2021/08/16 04:47:45;;;;;;;;;;;;;;;25.15;50.87;100812.78;5054113;28;1411;-49
2021/08/16 04:50:13;;;;;;;;;;;;;;;24.83;52.36;100811.84;5046957;28;1458;-49
2021/08/16 04:52:39;;;;;;;;;;;;;;;24.74;52.21;100793.94;5040996;28;1830;-49
2021/08/16 04:55:08;;;;;;;;;;;;;;;24.60;52.84;100820.66;5053128;28;1705;-49
2021/08/16 04:57:36;;;;;;;;;;;;;;;24.47;53.26;100806.81;5038337;28;2055;-49
2021/08/16 05:00:04;;;;;;;;;;;;;;;24.32;53.60;100814.75;5037815;28;1775;-48
2021/08/16 05:02:30;;;;;;;;;;;;;;;24.49;53.25;100818.31;5041339;28;1521;-49
2021/08/16 05:05:04;;;;;;;;;;;;;;;24.52;52.82;100817.16;5057575;28;1358;-49
2021/08/16 05:07:30;;;;;;;;;;;;;;;24.34;53.52;100825.41;5042323;28;1911;-49
2021/08/16 05:09:57;;;;;;;;;;;;;;;24.36;52.98;100812.56;5039473;28;1914;-48
2021/08/16 05:12:25;;;;;;;;;;;;;;;24.37;53.60;100808.84;5042647;28;1765;-51
2021/08/16 05:14:52;;;;;;;;;;;;;;;24.42;52.74;100833.50;5043603;28;1863;-48
2021/08/16 05:17:23;;;;;;;;;;;;;;;24.38;53.66;100815.94;5044774;28;1876;-48
2021/08/16 05:19:50;;;;;;;;;;;;;;;24.33;53.22;100831.81;5052187;28;1058;-49
2021/08/16 05:22:17;;;;;;;;;;;;;;;24.48;53.38;100849.03;5045505;28;1678;-49
2021/08/16 05:24:48;;;;;;;;;;;;;;;24.54;53.63;100820.53;5057342;28;1868;-48
2021/08/16 05:27:17;;;;;;;;;;;;;;;24.57;53.54;100826.44;5047340;28;1740;-49
2021/08/16 05:29:59;;;;;;;;;;;;;;;24.54;53.45;100826.75;5047477;28;1869;-48
2021/08/16 05:32:27;;;;;;;;;;;;;;;24.59;53.37;100824.41;5060451;28;1755;-48
2021/08/16 05:34:56;;;;;;;;;;;;;;;24.65;53.41;100811.19;5054904;28;1183;-48
2021/08/16 05:37:26;;;;;;;;;;;;;;;24.64;53.19;100831.16;5039319;28;1702;-49
2021/08/16 05:39:55;;;;;;;;;;;;;;;24.72;53.43;100812.22;5047898;28;1898;-49
2021/08/16 05:42:29;;;;;;;;;;;;;;;24.70;52.70;100804.25;5058233;28;1732;-48
2021/08/16 05:45:03;;;;;;;;;;;;;;;24.75;52.39;100819.97;5061367;28;1778;-48
2021/08/16 05:47:32;;;;;;;;;;;;;;;24.80;52.20;100809.47;5062836;28;1650;-49
2021/08/16 05:50:00;;;;;;;;;;;;;;;25.02;52.54;100816.00;5055552;28;1071;-48
2021/08/16 05:52:30;;;;;;;;;;;;;;;25.20;52.75;100811.19;5038757;28;1075;-48
2021/08/16 05:54:56;;;;;;;;;;;;;;;25.18;52.53;100824.06;5034768;28;2100;-48
2021/08/16 05:57:23;;;;;;;;;;;;;;;25.29;53.39;100806.66;5050424;28;1375;-48
2021/08/16 05:59:49;;;;;;;;;;;;;;;25.28;53.25;100823.88;5047893;28;1973;-50
2021/08/16 06:02:17;;;;;;;;;;;;;;;25.28;53.89;100818.47;5050402;28;1717;-48
2021/08/16 06:04:44;;;;;;;;;;;;;;;25.34;53.62;100806.09;5048175;28;1095;-48
2021/08/16 06:07:10;;;;;;;;;;;;;;;25.50;53.41;100813.31;5046403;28;1976;-47
2021/08/16 06:09:37;;;;;;;;;;;;;;;25.48;54.37;100801.81;5048954;28;1505;-47
2021/08/16 06:12:03;;;;;;;;;;;;;;;25.53;54.43;100811.09;5045194;28;2275;-47
2021/08/16 06:14:30;;;;;;;;;;;;;;;25.59;54.60;100809.53;5048087;28;1627;-47
2021/08/16 06:16:56;;;;;;;;;;;;;;;25.55;54.70;100806.34;5055758;28;1674;-46
2021/08/16 06:19:24;;;;;;;;;;;;;;;25.59;54.43;100802.25;5046064;28;1902;-47
2021/08/16 06:21:50;;;;;;;;;;;;;;;25.60;54.61;100800.38;5048569;28;1866;-47
2021/08/16 06:24:17;;;;;;;;;;;;;;;25.62;54.83;100802.91;5044236;28;1753;-47
2021/08/16 06:26:43;;;;;;;;;;;;;;;25.65;54.12;100819.66;5045031;28;1688;-47
2021/08/16 06:29:12;;;;;;;;;;;;;;;25.59;54.76;100806.84;5052303;28;1674;-48
2021/08/16 06:31:40;;;;;;;;;;;;;;;25.64;56.21;100796.28;5052881;28;1353;-46
2021/08/16 06:34:09;;;;;;;;;;;;;;;25.83;56.94;100805.00;5033759;28;1002;-46
2021/08/16 06:36:51;;;;;;;;;;;;;;;25.88;57.08;100811.53;5039470;28;1973;-46
2021/08/16 06:39:19;;;;;;;;;;;;;;;25.90;57.31;100814.06;5044843;28;1974;-46
2021/08/16 06:41:46;;;;;;;;;;;;;;;25.82;56.58;100803.28;5039702;28;1558;-49
2021/08/16 06:44:12;;;;;;;;;;;;;;;25.85;57.03;100802.94;5044572;28;1604;-47
2021/08/16 06:46:39;;;;;;;;;;;;;;;25.83;56.54;100813.13;5056323;28;1727;-47
2021/08/16 06:49:06;;;;;;;;;;;;;;;25.80;57.19;100817.00;5045179;28;1055;-47
2021/08/16 06:51:32;;;;;;;;;;;;;;;25.73;57.30;100811.47;5049671;28;1733;-47
2021/08/16 06:54:00;;;;;;;;;;;;;;;25.72;57.14;100812.47;5044403;28;1665;-47
2021/08/16 06:56:27;;;;;;;;;;;;;;;25.74;56.77;100810.44;5042141;28;1665;-47
2021/08/16 06:58:53;;;;;;;;;;;;;;;25.73;56.53;100806.06;5042991;28;1916;-47
2021/08/16 07:01:20;;;;;;;;;;;;;;;25.72;56.30;100815.19;5050393;28;1713;-47
2021/08/16 07:03:46;;;;;;;;;;;;;;;25.80;56.60;100822.44;5044075;28;1440;-47
2021/08/16 07:06:14;;;;;;;;;;;;;;;25.82;55.90;100812.25;5063520;28;1734;-47
2021/08/16 07:08:42;;;;;;;;;;;;;;;25.82;56.12;100816.84;5070469;28;1716;-47
2021/08/16 07:11:17;;;;;;;;;;;;;;;25.82;56.06;100814.13;5062463;28;1640;-47
2021/08/16 07:13:44;;;;;;;;;;;;;;;25.87;56.12;100828.00;5043916;28;1633;-47
2021/08/16 07:16:11;;;;;;;;;;;;;;;25.87;56.16;100823.41;5057837;28;1397;-47
2021/08/16 07:18:40;;;;;;;;;;;;;;;25.84;57.88;100817.50;5054215;28;1898;-47
2021/08/16 07:21:08;;;;;;;;;;;;;;;24.85;58.96;100823.34;5058248;28;1591;-47
2021/08/16 07:23:36;;;;;;;;;;;;;;;23.96;58.35;100834.00;5070984;28;1624;-47
2021/08/16 07:26:16;;;;;;;;;;;;;;;23.49;58.22;100825.59;5054475;28;1800;-47
2021/08/16 07:28:47;;;;;;;;;;;;;;;23.20;57.49;100840.31;5034460;28;1757;-47
2021/08/16 07:31:15;;;;;;;;;;;;;;;23.48;56.57;100824.75;5039816;28;1691;-47
2021/08/16 07:33:42;;;;;;;;;;;;;;;23.76;55.96;100829.88;5055507;28;1632;-47
2021/08/16 07:36:08;;;;;;;;;;;;;;;23.64;56.54;100829.34;5062183;28;1638;-47
2021/08/16 07:38:35;;;;;;;;;;;;;;;23.70;57.38;100825.97;5041515;28;1910;-47
2021/08/16 07:41:01;;;;;;;;;;;;;;;23.98;57.16;100825.72;5046890;28;1526;-47
2021/08/16 07:43:28;;;;;;;;;;;;;;;23.68;56.40;100829.88;5042662;28;1703;-46
2021/08/16 07:45:56;;;;;;;;;;;;;;;23.31;56.06;100823.81;5041863;28;1097;-46
2021/08/16 07:48:22;;;;;;;;;;;;;;;23.19;56.21;100828.66;5041865;28;1821;-48
2021/08/16 07:50:48;;;;;;;;;;;;;;;22.93;55.35;100823.28;5053551;28;1828;-48
2021/08/16 07:53:15;;;;;;;;;;;;;;;22.71;55.46;100821.13;5039432;28;1712;-47
2021/08/16 07:55:41;;;;;;;;;;;;;;;22.75;54.49;100827.91;5046164;28;1619;-47
2021/08/16 07:58:08;;;;;;;;;;;;;;;22.88;54.92;100817.53;5047412;28;1903;-46
2021/08/16 08:00:35;;;;;;;;;;;;;;;23.14;55.00;100825.63;5053999;28;1902;-46
2021/08/16 08:03:04;;;;;;;;;;;;;;;23.33;55.30;100832.59;5052693;28;1772;-46
2021/08/16 08:05:30;;;;;;;;;;;;;;;23.37;57.50;100827.72;5052483;28;1577;-47
2021/08/16 08:07:57;;;;;;;;;;;;;;;23.46;57.61;100831.28;5065716;28;2282;-46
2021/08/16 08:10:24;;;;;;;;;;;;;;;23.45;57.64;100816.13;5042157;28;1728;-46
2021/08/16 08:12:51;;;;;;;;;;;;;;;23.50;58.64;100827.28;5032885;28;1914;-46
2021/08/16 08:15:21;;;;;;;;;;;;;;;23.52;59.88;100817.16;5054802;28;1682;-46
2021/08/16 08:17:49;;;;;;;;;;;;;;;23.53;61.27;100818.84;5062660;28;1599;-47
2021/08/16 08:23:05;;;;;;;;;;;;;;;23.57;61.64;100828.31;5053788;28;1850;-47
2021/08/16 08:25:32;;;;;;;;;;;;;;;23.57;62.00;100822.91;5049315;28;1780;-47
2021/08/16 08:28:00;;;;;;;;;;;;;;;23.55;62.01;100816.81;5053260;28;1566;-46
2021/08/16 08:30:27;;;;;;;;;;;;;;;23.50;61.99;100816.50;5041775;28;1906;-46
2021/08/16 08:32:55;;;;;;;;;;;;;;;23.62;61.90;100813.31;5050656;28;1729;-46
2021/08/16 08:35:38;;;;;;;;;;;;;;;23.60;61.29;100806.38;5058025;28;1680;-47
2021/08/16 08:38:13;;;;;;;;;;;;;;;23.58;61.60;100819.22;5053707;28;1614;-47
2021/08/16 08:40:40;;;;;;;;;;;;;;;23.52;62.14;100819.88;5047756;28;1910;-46
2021/08/16 08:43:12;;;;;;;;;;;;;;;23.53;62.02;100816.16;5051180;28;1771;-46
2021/08/16 08:45:39;;;;;;;;;;;;;;;23.53;61.84;100794.56;5041622;28;1869;-47
2021/08/16 08:48:09;;;;;;;;;;;;;;;23.52;62.22;100792.88;5062052;28;1659;-46
2021/08/16 08:50:40;;;;;;;;;;;;;;;23.47;62.20;100797.91;5058938;28;1642;-47
2021/08/16 08:53:08;;;;;;;;;;;;;;;23.52;61.85;100803.69;5036001;28;1694;-46
2021/08/16 08:55:38;;;;;;;;;;;;;;;23.50;61.63;100797.59;5062247;28;1401;-47
2021/08/16 08:58:06;;;;;;;;;;;;;;;23.46;62.24;100804.31;5051505;28;1730;-47
2021/08/16 09:00:36;;;;;;;;;;;;;;;23.48;62.47;100792.34;5051036;28;1902;-46
2021/08/16 09:03:05;;;;;;;;;;;;;;;23.51;62.50;100797.41;5052872;28;1957;-46
2021/08/16 09:05:35;;;;;;;;;;;;;;;23.49;62.29;100794.03;5051520;28;1566;-47
2021/08/16 09:08:02;;;;;;;;;;;;;;;23.46;62.68;100782.72;5051555;28;1350;-48
2021/08/16 09:10:34;;;;;;;;;;;;;;;23.43;62.35;100779.34;5049225;28;1542;-46
2021/08/16 09:13:03;;;;;;;;;;;;;;;23.40;62.74;100784.25;5052474;28;1837;-46
2021/08/16 09:15:33;;;;;;;;;;;;;;;23.36;63.10;100780.19;5051828;28;1789;-46
2021/08/16 09:18:03;;;;;;;;;;;;;;;23.47;62.90;100785.25;5056382;28;2030;-46
2021/08/16 09:20:36;;;;;;;;;;;;;;;23.41;63.14;100778.66;5046859;28;1933;-47
2021/08/16 09:23:04;;;;;;;;;;;;;;;23.45;62.84;100776.47;5036878;28;1644;-46
2021/08/16 09:25:39;;;;;;;;;;;;;;;23.48;62.89;100775.31;5050498;28;1561;-46
2021/08/16 09:28:10;;;;;;;;;;;;;;;23.41;63.08;100770.56;5054168;28;1767;-46
2021/08/16 09:30:38;;;;;;;;;;;;;;;23.38;63.70;100775.47;5045428;28;1668;-47
2021/08/16 09:33:14;;;;;;;;;;;;;;;23.45;63.43;100764.84;5049003;28;1645;-46
2021/08/16 09:35:54;;;;;;;;;;;;;;;23.46;63.02;100767.38;5064062;28;1640;-46
2021/08/16 09:38:34;;;;;;;;;;;;;;;23.45;63.25;100764.84;5040381;28;1978;-48
2021/08/16 09:41:07;;;;;;;;;;;;;;;23.28;63.18;100770.22;5043189;28;1902;-48
2021/08/16 09:43:37;;;;;;;;;;;;;;;23.27;63.15;100757.72;5051632;28;1604;-46
2021/08/16 09:46:13;;;;;;;;;;;;;;;23.19;63.12;100760.38;5048604;28;1590;-46
2021/08/16 09:48:39;;;;;;;;;;;;;;;23.32;62.20;100755.38;5053084;28;1308;-46
2021/08/16 09:51:07;;;;;;;;;;;;;;;23.50;61.93;100757.13;5052941;28;1713;-47
2021/08/16 09:53:35;;;;;;;;;;;;;;;23.60;61.50;100749.69;5050986;28;1732;-46
2021/08/16 09:56:04;;;;;;;;;;;;;;;23.56;62.16;100740.25;5044670;28;1788;-46
2021/08/16 09:58:30;;;;;;;;;;;;;;;23.61;62.10;100749.50;5051607;28;1526;-46
2021/08/16 10:00:57;;;;;;;;;;;;;;;23.65;61.79;100736.53;5041734;28;1910;-46
2021/08/16 10:03:26;;;;;;;;;;;;;;;23.59;62.31;100748.00;5038100;28;1811;-47
2021/08/16 10:05:52;;;;;;;;;;;;;;;23.66;62.26;100740.94;5051121;28;1809;-47
2021/08/16 10:08:21;;;;;;;;;;;;;;;23.68;62.50;100728.13;5060822;28;1571;-46
2021/08/16 10:10:49;;;;;;;;;;;;;;;23.58;62.86;100739.06;5050279;28;1709;-47
2021/08/16 10:13:17;;;;;;;;;;;;;;;23.63;62.48;100735.84;5046003;28;1613;-45
2021/08/16 10:15:47;;;;;;;;;;;;;;;23.63;62.64;100716.97;5053030;28;1940;-46
2021/08/16 10:18:15;;;;;;;;;;;;;;;23.56;62.80;100732.16;5050661;28;1492;-45
2021/08/16 10:20:42;;;;;;;;;;;;;;;23.70;62.31;100726.09;5054172;28;1973;-45
2021/08/16 10:23:11;;;;;;;;;;;;;;;23.85;61.72;100728.97;5045332;28;1740;-46
2021/08/16 10:25:44;;;;;;;;;;;;;;;23.63;62.89;100715.13;5052336;28;1606;-46
2021/08/16 10:28:11;;;;;;;;;;;;;;;23.71;61.75;100711.56;5052455;28;1791;-46
2021/08/16 10:30:46;;;;;;;;;;;;;;;23.72;62.35;100718.66;5049498;28;1518;-46
2021/08/16 10:33:12;;;;;;;;;;;;;;;23.76;62.52;100716.47;5048843;28;1824;-46
2021/08/16 10:35:39;;;;;;;;;;;;;;;23.81;62.05;100719.53;5038101;28;2081;-46
2021/08/16 10:38:07;;;;;;;;;;;;;;;23.64;62.50;100705.16;5061221;28;1557;-47
2021/08/16 10:40:39;;;;;;;;;;;;;;;23.62;62.69;100712.59;5056102;28;1979;-46
2021/08/16 10:43:07;;;;;;;;;;;;;;;23.69;62.22;100700.09;5051582;28;1538;-47
2021/08/16 10:45:35;;;;;;;;;;;;;;;23.54;62.79;100699.09;5052736;28;1451;-47
2021/08/16 10:48:04;;;;;;;;;;;;;;;23.73;62.41;100682.53;5049829;28;1308;-45
2021/08/16 10:50:30;;;;;;;;;;;;;;;23.81;61.92;100689.81;5056349;28;1544;-46
2021/08/16 10:53:01;;;;;;;;;;;;;;;23.68;61.95;100679.50;5051975;28;1382;-45
2021/08/16 10:55:30;;;;;;;;;;;;;;;23.81;61.72;100698.78;5049732;28;1158;-45
2021/08/16 10:58:01;;;;;;;;;;;;;;;23.97;61.56;100670.06;5044128;28;1718;-45
2021/08/16 11:00:27;;;;;;;;;;;;;;;23.87;61.98;100680.22;5048347;28;2160;-45
2021/08/16 11:02:56;;;;;;;;;;;;;;;23.78;62.16;100669.41;5044692;28;1891;-46
2021/08/16 11:05:30;;;;;;;;;;;;;;;23.74;62.53;100684.25;5055492;28;1481;-46
2021/08/16 11:08:01;;;;;;;;;;;;;;;23.68;62.64;100670.59;5046005;28;1147;-45
2021/08/16 11:10:28;;;;;;;;;;;;;;;23.84;62.10;100661.66;5044130;28;1727;-45
2021/08/16 11:12:54;;;;;;;;;;;;;;;23.72;62.75;100648.47;5044388;28;1744;-45
2021/08/16 11:15:21;;;;;;;;;;;;;;;23.80;62.40;100662.00;5051723;28;1770;-45
2021/08/16 11:17:47;;;;;;;;;;;;;;;23.85;61.39;100664.16;5049792;28;1759;-44
2021/08/16 11:20:15;;;;;;;;;;;;;;;23.81;62.20;100647.50;5037637;28;1988;-45
2021/08/16 11:22:53;;;;;;;;;;;;;;;23.91;62.27;100654.53;5051575;28;1834;-44
2021/08/16 11:25:20;;;;;;;;;;;;;;;23.96;62.19;100647.63;5055154;28;1728;-45
2021/08/16 11:27:50;;;;;;;;;;;;;;;23.78;62.95;100644.28;5051731;28;1935;-46
2021/08/16 11:30:17;;;;;;;;;;;;;;;23.96;62.07;100639.53;5045247;28;1902;-45
2021/08/16 11:32:43;;;;;;;;;;;;;;;23.96;61.55;100644.94;5047923;28;1955;-45
2021/08/16 11:35:11;;;;;;;;;;;;;;;23.87;62.26;100645.94;5052550;28;1881;-45
2021/08/16 11:37:43;;;;;;;;;;;;;;;23.80;62.82;100626.06;5046281;28;1676;-45
2021/08/16 11:40:17;;;;;;;;;;;;;;;23.99;62.10;100630.22;5045268;28;1938;-46
2021/08/16 11:42:44;;;;;;;;;;;;;;;23.90;63.36;100629.41;5050907;28;1968;-46
2021/08/16 11:45:15;;;;;;;;;;;;;;;23.92;62.20;100623.84;5046814;28;1760;-45
2021/08/16 11:47:45;;;;;;;;;;;;;;;23.93;62.59;100617.41;5046492;28;1697;-46
2021/08/16 11:50:13;;;;;;;;;;;;;;;23.84;62.91;100613.06;5052310;28;1196;-45
2021/08/16 11:52:40;;;;;;;;;;;;;;;23.91;62.03;100611.34;5064626;28;1360;-46
2021/08/16 11:55:10;;;;;;;;;;;;;;;23.92;62.45;100615.75;5040156;28;1979;-45
2021/08/16 11:57:42;;;;;;;;;;;;;;;23.81;62.91;100615.09;5050364;28;1685;-45
2021/08/16 12:00:11;;;;;;;;;;;;;;;23.89;62.27;100607.97;5042165;28;1981;-45
2021/08/16 12:02:39;;;;;;;;;;;;;;;23.97;62.61;100602.53;5056207;28;1856;-45
2021/08/16 12:05:07;;;;;;;;;;;;;;;23.85;62.37;100612.03;5054463;28;1286;-44
2021/08/16 12:07:36;;;;;;;;;;;;;;;23.88;62.29;100604.44;5048377;28;1940;-45
2021/08/16 12:10:15;;;;;;;;;;;;;;;23.93;62.54;100598.50;5053618;28;1660;-45
2021/08/16 12:12:47;;;;;;;;;;;;;;;23.80;62.82;100597.19;5048610;28;1645;-45
2021/08/16 12:15:18;;;;;;;;;;;;;;;23.84;62.68;100586.06;5048841;28;1973;-45
2021/08/16 12:17:57;;;;;;;;;;;;;;;23.87;62.47;100601.91;5051606;28;1827;-45
2021/08/16 12:20:24;;;;;;;;;;;;;;;23.76;63.25;100600.38;5053956;28;1914;-46
2021/08/16 12:22:56;;;;;;;;;;;;;;;23.76;63.64;100587.72;5054533;28;1417;-45
2021/08/16 12:25:27;;;;;;;;;;;;;;;23.72;63.78;100591.78;5039343;28;1739;-45
2021/08/16 12:28:04;;;;;;;;;;;;;;;23.82;62.86;100586.22;5049820;28;2215;-45
2021/08/16 12:30:32;;;;;;;;;;;;;;;23.76;62.98;100582.31;5045569;28;1465;-44
2021/08/16 12:35:57;;;;;;;;;;;;;;;23.76;62.96;100576.91;5034289;28;2502;-44
2021/08/16 12:38:28;;;;;;;;;;;;;;;23.73;63.26;100558.34;5051049;28;1607;-45
2021/08/16 12:41:01;;;;;;;;;;;;;;;23.72;63.43;100566.63;5042942;28;2000;-45
2021/08/16 12:43:39;;;;;;;;;;;;;;;23.79;62.80;100568.47;5047133;28;1253;-45
2021/08/16 12:46:07;;;;;;;;;;;;;;;23.81;62.47;100571.00;5047481;28;1274;-45
2021/08/16 12:48:41;;;;;;;;;;;;;;;23.72;63.06;100572.88;5049972;28;1057;-45
2021/08/16 12:51:08;;;;;;;;;;;;;;;23.75;63.08;100564.41;5049617;28;1491;-45
2021/08/16 12:53:37;;;;;;;;;;;;;;;23.80;62.92;100540.47;5051354;28;1445;-45
2021/08/16 12:56:06;;;;;;;;;;;;;;;23.74;62.92;100538.44;5053356;28;1680;-45
2021/08/16 12:58:34;;;;;;;;;;;;;;;23.78;62.76;100550.63;5036606;28;1563;-46
2021/08/16 13:01:03;;;;;;;;;;;;;;;23.97;62.84;100553.94;5071763;28;1914;-45